OIBK

Kish International Airport

Kish Island, Iran
METAR OIBK 241100Z 30008KT 7000 NSC 35/13 Q1004
Observed Flight Rules
May-24 @ 11:00 UTC (60 minutes ago) Marginal Visual Flight Rules
Wind Visibility Clouds
300° at 8 knots 7,001 meters
  • Clear skies
Temperatures Readings
Current 35°C / 95°F
Dewpoint 13°C / 55°F
Humidity 26%
Altimeter 29.65" Hg
Pressure 1004 hPa
Elevation 30
METAR OIBK 241100Z 30008KT 7000 NSC 35/13 Q1004
Observed Flight Rules
May-24 @ 11:00 UTC
(60 minutes ago)
MVFR
Wind Visibility
300° at 8 knots 7,001 meters
Clouds
  • Clear skies
Temperature Dewpoint
35°C / 95°F 13°C / 55°F
Humidity Altimeter Pressure
26% 29.65" Hg 1004 hPa